createdAt,value
2018-12-05T00:00:10.058Z,95100.61
2018-12-05T00:02:40.291Z,95100.75
2018-12-05T00:05:10.145Z,95106.30
2018-12-05T00:07:39.890Z,95099.70
2018-12-05T00:10:09.576Z,95105.22
2018-12-05T00:12:39.349Z,95106.95
2018-12-05T00:15:09.284Z,95106.79
2018-12-05T00:17:39.050Z,95111.49
2018-12-05T00:20:08.989Z,95115.08
2018-12-05T00:22:38.655Z,95113.82
2018-12-05T00:25:08.509Z,95110.80
2018-12-05T00:27:38.260Z,95115.30
2018-12-05T00:30:08.285Z,95115.59
2018-12-05T00:32:38.258Z,95119.67
2018-12-05T00:35:07.951Z,95124.48
2018-12-05T00:37:37.611Z,95124.29
2018-12-05T00:40:07.483Z,95117.38
2018-12-05T00:42:37.235Z,95119.30
2018-12-05T00:45:07.509Z,95122.23
2018-12-05T00:47:37.325Z,95125.94
2018-12-05T00:50:07.325Z,95122.52
2018-12-05T00:52:37.000Z,95113.58
2018-12-05T00:55:06.915Z,95124.40
2018-12-05T00:57:36.567Z,95122.30
2018-12-05T01:00:08.041Z,95122.82
2018-12-05T01:02:38.174Z,95118.31
2018-12-05T01:05:08.065Z,95126.49
2018-12-05T01:07:37.863Z,95131.47
2018-12-05T01:10:08.284Z,95124.92
2018-12-05T01:12:38.063Z,95122.30
2018-12-05T01:15:07.975Z,95122.55
2018-12-05T01:17:37.539Z,95116.75
2018-12-05T01:20:07.590Z,95120.72
2018-12-05T01:22:37.319Z,95115.70
2018-12-05T01:25:07.483Z,95120.85
2018-12-05T01:27:37.249Z,95120.41
2018-12-05T01:30:07.698Z,95114.63
2018-12-05T01:32:39.188Z,95118.06
2018-12-05T01:35:09.849Z,95114.40
2018-12-05T01:37:40.171Z,95109.66
2018-12-05T01:40:10.708Z,95114.92
2018-12-05T01:42:41.211Z,95114.70
2018-12-05T01:45:10.975Z,95111.72
2018-12-05T01:47:40.718Z,95107.48
2018-12-05T01:50:10.464Z,95109.22
2018-12-05T01:52:39.942Z,95112.03
2018-12-05T01:55:09.826Z,95111.66
2018-12-05T01:57:39.539Z,95107.53
2018-12-05T02:00:09.933Z,95102.23
2018-12-05T02:02:40.565Z,95105.73
2018-12-05T02:05:10.971Z,95108.74
2018-12-05T02:07:41.301Z,95110.59
2018-12-05T02:10:12.016Z,95112.48
2018-12-05T02:12:42.646Z,95120.70
2018-12-05T02:15:13.073Z,95123.93
2018-12-05T02:17:44.356Z,95122.34
2018-12-05T02:20:14.704Z,95137.31
2018-12-05T02:22:44.883Z,95144.17
2018-12-05T02:25:15.103Z,95142.48
2018-12-05T02:27:45.828Z,95146.00
2018-12-05T02:30:16.478Z,95142.36
2018-12-05T02:32:47.205Z,95153.20
2018-12-05T02:35:18.143Z,95150.53
2018-12-05T02:37:48.526Z,95151.44
2018-12-05T02:40:19.079Z,95146.56
2018-12-05T02:42:49.488Z,95139.97
2018-12-05T02:45:19.237Z,95139.48
2018-12-05T02:47:49.231Z,95142.47
2018-12-05T02:50:18.887Z,95149.59
2018-12-05T02:52:48.827Z,95147.78
2018-12-05T02:55:18.643Z,95152.00
2018-12-05T02:57:48.351Z,95145.61
2018-12-05T03:00:18.029Z,95149.87
2018-12-05T03:02:47.758Z,95151.87
2018-12-05T03:05:17.607Z,95144.73
2018-12-05T03:07:47.212Z,95148.78
2018-12-05T03:10:16.894Z,95152.28
2018-12-05T03:12:46.548Z,95156.22
2018-12-05T03:15:16.225Z,95164.20
2018-12-05T03:17:45.807Z,95168.83
2018-12-05T03:20:15.355Z,95172.81
2018-12-05T03:22:45.092Z,95168.08
2018-12-05T03:25:14.699Z,95173.55
2018-12-05T03:27:44.350Z,95179.84
2018-12-05T03:30:14.102Z,95181.53
2018-12-05T03:32:43.927Z,95186.92
2018-12-05T03:35:13.696Z,95180.06
2018-12-05T03:37:43.677Z,95184.45
2018-12-05T03:40:13.481Z,95178.98
2018-12-05T03:42:43.161Z,95180.36
2018-12-05T03:45:13.000Z,95181.98
2018-12-05T03:47:42.742Z,95179.83
2018-12-05T03:50:12.982Z,95176.37
2018-12-05T03:52:43.399Z,95189.64
2018-12-05T03:55:13.941Z,95189.90
2018-12-05T03:57:44.470Z,95197.88
2018-12-05T04:00:15.107Z,95198.41
2018-12-05T04:02:45.752Z,95212.16
2018-12-05T04:05:16.529Z,95210.06
2018-12-05T04:07:46.276Z,95208.20
2018-12-05T04:10:16.301Z,95214.39
2018-12-05T04:12:46.950Z,95210.84
2018-12-05T04:15:16.568Z,95208.56
2018-12-05T04:17:46.205Z,95203.89
2018-12-05T04:20:15.955Z,95203.42
2018-12-05T04:22:45.905Z,95206.61
2018-12-05T04:25:15.531Z,95210.31
2018-12-05T04:27:45.122Z,95213.47
2018-12-05T04:30:14.736Z,95215.84
2018-12-05T04:32:44.457Z,95220.86
2018-12-05T04:35:15.080Z,95224.98
2018-12-05T04:37:45.718Z,95231.95
2018-12-05T04:40:16.507Z,95227.41
2018-12-05T04:42:47.127Z,95242.61
2018-12-05T04:45:16.957Z,95241.25
2018-12-05T04:47:46.602Z,95250.22
2018-12-05T04:50:16.330Z,95261.96
2018-12-05T04:52:46.106Z,95264.75
2018-12-05T04:55:15.921Z,95264.47
2018-12-05T04:57:46.169Z,95267.39
2018-12-05T05:00:16.704Z,95273.80
2018-12-05T05:02:46.904Z,95277.82
2018-12-05T05:05:16.770Z,95275.02
2018-12-05T05:07:46.572Z,95281.43
2018-12-05T05:10:17.353Z,95285.16
2018-12-05T05:12:47.514Z,95292.00
2018-12-05T05:15:17.249Z,95291.22
2018-12-05T05:17:47.027Z,95295.38
2018-12-05T05:20:16.686Z,95294.38
2018-12-05T05:22:46.496Z,95296.41
2018-12-05T05:25:16.782Z,95296.84
2018-12-05T05:27:46.811Z,95308.65
2018-12-05T05:30:17.237Z,95306.66
2018-12-05T05:32:52.056Z,95301.80
2018-12-05T05:35:22.896Z,95301.80
2018-12-05T05:37:53.594Z,95305.27
2018-12-05T05:40:24.277Z,95301.96
2018-12-05T05:42:54.084Z,95305.86
2018-12-05T05:45:23.978Z,95304.11
2018-12-05T05:47:53.753Z,95306.67
2018-12-05T05:50:23.442Z,95311.33
2018-12-05T05:52:53.190Z,95307.70
2018-12-05T05:55:22.864Z,95308.97
2018-12-05T05:57:52.675Z,95315.53
2018-12-05T06:00:22.428Z,95310.34
2018-12-05T06:02:52.153Z,95321.92
2018-12-05T06:05:21.824Z,95321.58
2018-12-05T06:07:51.620Z,95324.95
2018-12-05T06:10:52.612Z,95328.51
2018-12-05T06:13:23.048Z,95328.34
2018-12-05T06:15:53.443Z,95335.84
2018-12-05T06:18:23.807Z,95342.49
2018-12-05T06:20:54.700Z,95347.41
2018-12-05T06:23:25.224Z,95346.89
2018-12-05T06:25:55.745Z,95349.05
2018-12-05T06:28:26.193Z,95355.75
2018-12-05T06:30:57.123Z,95355.77
2018-12-05T06:33:27.386Z,95356.59
2018-12-05T06:35:57.688Z,95363.00
2018-12-05T06:38:28.219Z,95354.86
2018-12-05T06:40:59.589Z,95358.60
2018-12-05T06:43:29.848Z,95357.44
2018-12-05T06:46:00.380Z,95357.80
2018-12-05T06:48:30.814Z,95361.98
2018-12-05T06:51:02.445Z,95365.14
2018-12-05T06:53:33.370Z,95365.66
2018-12-05T06:56:03.883Z,95371.68
2018-12-05T06:58:34.440Z,95371.20
2018-12-05T07:01:05.596Z,95370.75
2018-12-05T07:03:36.131Z,95367.60
2018-12-05T07:06:06.648Z,95372.22
2018-12-05T07:08:36.715Z,95372.38
2018-12-05T07:11:07.662Z,95374.55
2018-12-05T07:13:38.176Z,95372.52
2018-12-05T07:16:10.061Z,95378.58
2018-12-05T07:18:40.384Z,95379.59
2018-12-05T07:21:11.720Z,95377.33
2018-12-05T07:23:42.062Z,95374.71
2018-12-05T07:26:12.568Z,95377.03
2018-12-05T07:28:43.002Z,95374.46
2018-12-05T07:31:14.749Z,95379.04
2018-12-05T07:33:44.969Z,95389.32
2018-12-05T07:36:15.373Z,95387.34
2018-12-05T07:38:45.847Z,95388.98
2018-12-05T07:41:16.406Z,95387.43
2018-12-05T07:43:46.641Z,95391.48
2018-12-05T07:46:16.306Z,95380.89
2018-12-05T07:48:45.838Z,95377.08
2018-12-05T07:51:15.891Z,95384.32
2018-12-05T07:53:46.336Z,95392.30
2018-12-05T07:56:16.715Z,95385.70
2018-12-05T07:58:46.952Z,95390.45
2018-12-05T08:01:17.776Z,95391.56
2018-12-05T08:03:47.420Z,95386.20
2018-12-05T08:06:17.947Z,95383.30
2018-12-05T08:08:48.326Z,95388.08
2018-12-05T08:11:19.400Z,95390.52
2018-12-05T08:13:49.671Z,95393.36
2018-12-05T08:16:19.740Z,95388.88
2018-12-05T08:18:49.418Z,95385.47
2018-12-05T08:21:20.258Z,95395.81
2018-12-05T08:23:49.872Z,95395.02
2018-12-05T08:26:19.561Z,95391.76
2018-12-05T08:28:49.217Z,95392.33
2018-12-05T08:31:18.895Z,95389.92
2018-12-05T08:33:48.508Z,95399.50
2018-12-05T08:36:18.289Z,95391.81
2018-12-05T08:38:48.250Z,95397.66
2018-12-05T08:41:17.871Z,95391.84
2018-12-05T08:43:47.458Z,95390.77
2018-12-05T08:46:17.126Z,95385.98
2018-12-05T08:48:46.780Z,95387.05
2018-12-05T08:51:16.438Z,95391.53
2018-12-05T08:53:46.120Z,95387.53
2018-12-05T08:56:15.856Z,95393.86
2018-12-05T08:58:45.474Z,95394.14
2018-12-05T09:01:15.178Z,95139.58
2018-12-05T09:03:44.852Z,95394.70
2018-12-05T09:06:14.524Z,95393.31
2018-12-05T09:08:44.211Z,95390.45
2018-12-05T09:11:13.949Z,95392.30
2018-12-05T09:13:43.612Z,95392.30
2018-12-05T09:16:13.284Z,95380.33
2018-12-05T09:18:43.006Z,95383.64
2018-12-05T09:21:13.413Z,95381.62
2018-12-05T09:23:43.329Z,95373.52
2018-12-05T09:26:12.923Z,95376.25
2018-12-05T09:28:42.566Z,95375.87
2018-12-05T09:31:12.204Z,95373.58
2018-12-05T09:33:41.861Z,95363.87
2018-12-05T09:36:11.535Z,95368.11
2018-12-05T09:38:41.307Z,95365.27
2018-12-05T09:41:11.260Z,95363.73
2018-12-05T09:43:40.874Z,95361.41
2018-12-05T09:46:10.530Z,95355.48
2018-12-05T09:48:40.188Z,95348.81
2018-12-05T09:51:09.896Z,95351.45
2018-12-05T09:53:39.786Z,95346.49
2018-12-05T09:56:09.493Z,95346.63
2018-12-05T09:58:39.132Z,95340.73
2018-12-05T10:01:08.791Z,95340.38
2018-12-05T10:03:38.477Z,95336.47
2018-12-05T10:06:08.169Z,95335.28
2018-12-05T10:08:37.889Z,95342.86
2018-12-05T10:11:07.576Z,95339.54
2018-12-05T10:18:30.011Z,95343.50
2018-12-05T10:20:59.729Z,95343.98
2018-12-05T10:23:29.461Z,95340.85
2018-12-05T10:25:59.155Z,95337.22
2018-12-05T10:28:28.855Z,95333.42
2018-12-05T10:30:58.580Z,95336.07
2018-12-05T10:33:28.297Z,95326.97
2018-12-05T10:35:57.934Z,95330.41
2018-12-05T10:38:27.604Z,95326.52
2018-12-05T10:40:57.316Z,95328.64
2018-12-05T10:43:27.296Z,95329.26
2018-12-05T10:45:57.190Z,95326.39
2018-12-05T10:48:26.714Z,95327.66
2018-12-05T10:50:56.327Z,95326.54
2018-12-05T10:53:26.001Z,95327.45
2018-12-05T10:55:55.786Z,95329.52
2018-12-05T10:58:25.600Z,95329.59
2018-12-05T11:01:00.283Z,95335.07
2018-12-05T11:03:35.676Z,95326.41
2018-12-05T11:06:11.801Z,95328.63
2018-12-05T11:08:46.742Z,95317.40
2018-12-05T11:11:21.432Z,95325.21
2018-12-05T11:13:56.211Z,95327.84
2018-12-05T11:16:30.901Z,95322.48
2018-12-05T11:19:05.746Z,95331.22
2018-12-05T11:21:40.556Z,95333.48
2018-12-05T11:24:17.255Z,95330.30
2018-12-05T11:26:47.063Z,95324.96
2018-12-05T11:29:16.757Z,95324.25
2018-12-05T11:31:46.501Z,95330.77
2018-12-05T11:34:16.171Z,95328.36
2018-12-05T11:36:45.843Z,95329.92
2018-12-05T11:39:15.528Z,95334.95
2018-12-05T11:41:45.193Z,95335.27
2018-12-05T11:44:15.113Z,95327.36
2018-12-05T11:46:44.799Z,95336.13
2018-12-05T11:49:14.561Z,95327.74
2018-12-05T11:51:44.240Z,95329.97
2018-12-05T11:54:13.938Z,95323.50
2018-12-05T11:56:43.557Z,95328.10
2018-12-05T11:59:13.289Z,95324.78
2018-12-05T12:01:42.909Z,95322.06
2018-12-05T12:04:12.721Z,95321.62
2018-12-05T12:06:42.462Z,95324.56
2018-12-05T12:09:12.374Z,95322.16
2018-12-05T12:11:42.127Z,95324.19
2018-12-05T12:14:11.820Z,95319.98
2018-12-05T12:16:41.492Z,95324.69
2018-12-05T12:19:11.139Z,95325.74
2018-12-05T12:21:42.885Z,95324.70
2018-12-05T12:24:13.505Z,95330.23
2018-12-05T12:26:43.027Z,95326.27
2018-12-05T12:29:12.689Z,95331.32
2018-12-05T12:31:42.409Z,95330.91
2018-12-05T12:34:12.000Z,95330.91
2018-12-05T12:36:41.579Z,95327.02
2018-12-05T12:39:11.223Z,95329.13
2018-12-05T12:41:40.878Z,95327.28
2018-12-05T12:44:10.645Z,95333.62
2018-12-05T12:46:40.826Z,95335.16
2018-12-05T12:49:10.462Z,95331.55
2018-12-05T12:51:39.990Z,95336.30
2018-12-05T12:54:09.737Z,95331.94
2018-12-05T12:56:39.320Z,95337.42
2018-12-05T12:59:09.129Z,95335.52
2018-12-05T13:01:38.790Z,95332.20
2018-12-05T13:04:08.316Z,95331.48
2018-12-05T13:06:37.999Z,95332.89
2018-12-05T13:09:08.824Z,95336.91
2018-12-05T13:11:38.487Z,95337.31
2018-12-05T13:14:08.207Z,95341.48
2018-12-05T13:16:37.865Z,95343.14
2018-12-05T13:19:07.555Z,95341.09
2018-12-05T13:21:37.223Z,95344.72
2018-12-05T13:24:07.038Z,95353.73
2018-12-05T13:26:36.734Z,95350.28
2018-12-05T13:29:06.517Z,95353.06
2018-12-05T13:31:36.108Z,95352.07
2018-12-05T13:34:05.816Z,95356.31
2018-12-05T13:36:35.545Z,95352.94
2018-12-05T13:39:07.311Z,95358.81
2018-12-05T13:41:36.958Z,95355.84
2018-12-05T13:44:07.505Z,95363.42
2018-12-05T13:46:37.380Z,95367.67
2018-12-05T13:50:10.143Z,95366.91
2018-12-05T13:52:40.097Z,95371.53
2018-12-05T13:55:09.739Z,95378.05
2018-12-05T13:57:39.393Z,95385.05
2018-12-05T14:00:09.870Z,95384.44
2018-12-05T14:02:39.426Z,95393.07
2018-12-05T14:05:09.209Z,95392.82
2018-12-05T14:07:38.774Z,95395.17
2018-12-05T14:10:08.479Z,95395.77
2018-12-05T14:12:40.276Z,95400.30
2018-12-05T14:15:11.419Z,95405.06
2018-12-05T14:17:41.183Z,95399.52
2018-12-05T14:20:10.899Z,95406.35
2018-12-05T14:22:41.194Z,95413.75
2018-12-05T14:25:11.066Z,95415.25
2018-12-05T14:27:40.718Z,95409.66
2018-12-05T14:30:10.510Z,95415.92
2018-12-05T14:32:40.140Z,95427.56
2018-12-05T14:35:09.776Z,95431.53
2018-12-05T14:37:39.384Z,95432.55
2018-12-05T14:40:09.106Z,95427.13
2018-12-05T14:42:38.697Z,95431.05
2018-12-05T14:45:08.396Z,95433.30
2018-12-05T14:47:38.153Z,95439.97
2018-12-05T14:50:08.020Z,95431.73
2018-12-05T14:52:37.929Z,95436.25
2018-12-05T14:55:07.755Z,95440.22
2018-12-05T14:57:37.401Z,95438.33
2018-12-05T15:00:07.902Z,95435.41
2018-12-05T15:02:37.587Z,95437.33
2018-12-05T15:05:07.321Z,95427.17
2018-12-05T15:07:37.063Z,95432.30
2018-12-05T15:10:07.119Z,95429.63
2018-12-05T15:12:36.771Z,95425.98
2018-12-05T15:15:06.737Z,95425.39
2018-12-05T15:17:36.434Z,95431.58
2018-12-05T15:20:06.198Z,95438.73
2018-12-05T15:22:35.879Z,95443.50
2018-12-05T15:25:05.914Z,95453.83
2018-12-05T15:27:35.604Z,95450.64
2018-12-05T15:30:05.824Z,95458.08
2018-12-05T15:32:35.635Z,95452.66
2018-12-05T15:35:05.472Z,95464.94
2018-12-05T15:37:34.985Z,95472.61
2018-12-05T15:40:04.722Z,95482.45
2018-12-05T15:42:35.697Z,95483.50
2018-12-05T15:45:06.591Z,95486.14
2018-12-05T15:47:37.065Z,95485.25
2018-12-05T15:50:08.169Z,95488.48
2018-12-05T15:52:38.220Z,95490.07
2018-12-05T15:55:08.499Z,95482.94
2018-12-05T15:57:38.123Z,95493.71
2018-12-05T16:00:09.487Z,95498.56
2018-12-05T16:02:39.694Z,95503.61
2018-12-05T16:05:09.234Z,95506.11
2018-12-05T16:07:38.825Z,95516.73
2018-12-05T16:10:09.339Z,95513.28
2018-12-05T16:12:38.994Z,95511.73
2018-12-05T16:15:08.802Z,95512.80
2018-12-05T16:17:38.407Z,95522.82
2018-12-05T16:20:08.104Z,95521.32
2018-12-05T16:22:37.785Z,95521.82
2018-12-05T16:25:07.456Z,95533.47
2018-12-05T16:27:37.096Z,95524.78
2018-12-05T16:30:07.121Z,95529.31
2018-12-05T16:32:36.789Z,95533.16
2018-12-05T16:35:06.640Z,95537.12
2018-12-05T16:37:36.256Z,95534.55
2018-12-05T16:40:06.589Z,95539.17
2018-12-05T16:42:36.386Z,95544.14
2018-12-05T16:45:06.916Z,95536.02
2018-12-05T16:47:36.476Z,95539.43
2018-12-05T16:50:06.706Z,95532.89
2018-12-05T16:52:36.939Z,95538.66
2018-12-05T16:55:06.847Z,95536.33
2018-12-05T16:57:36.668Z,95542.19
2018-12-05T17:00:07.783Z,95542.66
2018-12-05T17:02:44.458Z,95545.08
2018-12-05T17:05:14.539Z,95545.91
2018-12-05T17:07:44.379Z,95549.71
2018-12-05T17:10:14.273Z,95560.25
2018-12-05T17:12:44.189Z,95563.34
2018-12-05T17:15:14.184Z,95566.28
2018-12-05T17:17:44.591Z,95575.41
2018-12-05T17:20:14.588Z,95583.10
2018-12-05T17:22:44.976Z,95575.75
2018-12-05T17:25:14.853Z,95579.63
2018-12-05T17:27:44.824Z,95581.80
2018-12-05T17:30:14.669Z,95571.25
2018-12-05T17:32:44.471Z,95579.89
2018-12-05T17:35:14.341Z,95581.53
2018-12-05T17:37:44.212Z,95582.05
2018-12-05T17:40:14.136Z,95592.52
2018-12-05T17:42:44.593Z,95590.47
2018-12-05T17:45:15.233Z,95591.09
2018-12-05T17:47:46.345Z,95593.27
2018-12-05T17:50:17.012Z,95591.25
2018-12-05T17:52:49.584Z,95592.69
2018-12-05T17:55:20.319Z,95589.75
2018-12-05T17:57:50.952Z,95591.47
2018-12-05T18:00:21.611Z,95590.55
2018-12-05T18:02:54.107Z,95589.42
2018-12-05T18:05:24.640Z,95590.89
2018-12-05T18:07:55.048Z,95599.48
2018-12-05T18:10:26.401Z,95605.76
2018-12-05T18:12:56.897Z,95596.83
2018-12-05T18:15:26.747Z,95606.97
2018-12-05T18:17:56.792Z,95612.44
2018-12-05T18:20:26.622Z,95608.73
2018-12-05T18:22:57.335Z,95607.17
2018-12-05T18:25:27.167Z,95613.48
2018-12-05T18:27:57.018Z,95625.87
2018-12-05T18:30:26.917Z,95623.36
2018-12-05T18:32:57.166Z,95618.72
2018-12-05T18:35:28.209Z,95627.84
2018-12-05T18:37:57.828Z,95623.00
2018-12-05T18:40:27.608Z,95623.89
2018-12-05T18:42:58.381Z,95626.02
2018-12-05T18:45:28.253Z,95627.20
2018-12-05T18:47:58.208Z,95631.50
2018-12-05T18:50:28.131Z,95634.16
2018-12-05T18:52:58.855Z,95633.76
2018-12-05T18:55:28.755Z,95639.38
2018-12-05T18:57:58.700Z,95641.61
2018-12-05T19:00:28.632Z,95637.41
2018-12-05T19:02:59.265Z,95639.48
2018-12-05T19:05:29.230Z,95645.62
2018-12-05T19:07:59.521Z,95642.38
2018-12-05T19:10:31.114Z,95652.34
2018-12-05T19:13:01.754Z,95647.80
2018-12-05T19:15:31.713Z,95649.59
2018-12-05T19:18:01.572Z,95649.04
2018-12-05T19:20:31.506Z,95648.91
2018-12-05T19:23:03.085Z,95654.58
2018-12-05T19:25:33.888Z,95653.41
2018-12-05T19:28:04.936Z,95657.95
2018-12-05T19:30:36.317Z,95670.22
2018-12-05T19:33:07.037Z,95667.98
2018-12-05T19:35:36.991Z,95670.82
2018-12-05T19:38:06.821Z,95673.95
2018-12-05T19:40:36.656Z,95673.38
2018-12-05T19:43:07.373Z,95675.64
2018-12-05T19:45:37.240Z,95676.98
2018-12-05T19:48:07.141Z,95682.78
2018-12-05T19:50:36.981Z,95683.27
2018-12-05T19:53:06.908Z,95683.70
2018-12-05T19:55:36.858Z,95683.92
2018-12-05T19:58:06.842Z,95686.16
2018-12-05T20:00:36.809Z,95686.45
2018-12-05T20:03:07.080Z,95687.50
2018-12-05T20:05:37.495Z,95683.30
2018-12-05T20:08:07.335Z,95686.44
2018-12-05T20:10:37.051Z,95689.20
2018-12-05T20:13:07.800Z,95687.14
2018-12-05T20:15:37.703Z,95691.95
2018-12-05T20:18:07.777Z,95692.56
2018-12-05T20:20:37.606Z,95694.44
2018-12-05T20:23:07.971Z,95695.53
2018-12-05T20:25:37.830Z,95697.26
2018-12-05T20:28:07.684Z,95702.98
2018-12-05T20:30:37.504Z,95698.43
2018-12-05T20:33:07.391Z,95704.88
2018-12-05T20:35:37.230Z,95705.15
2018-12-05T20:38:07.067Z,95705.05
2018-12-05T20:40:36.922Z,95711.56
2018-12-05T20:43:06.776Z,95711.59
2018-12-05T20:45:36.673Z,95708.50
2018-12-05T20:48:06.670Z,95718.73
2018-12-05T20:50:36.535Z,95724.17
2018-12-05T20:53:06.388Z,95723.13
2018-12-05T20:55:36.234Z,95730.89
2018-12-05T20:58:06.122Z,95730.63
2018-12-05T21:00:36.023Z,95739.45
2018-12-05T21:03:05.970Z,95745.56
2018-12-05T21:05:36.986Z,95750.48
2018-12-05T21:08:07.585Z,95750.28
2018-12-05T21:10:38.914Z,95758.58
2018-12-05T21:13:12.637Z,95763.06
2018-12-05T21:15:45.954Z,95764.44
2018-12-05T21:18:16.479Z,95764.97
2018-12-05T21:20:47.640Z,95768.59
2018-12-05T21:23:19.072Z,95763.09
2018-12-05T21:25:50.748Z,95774.98
2018-12-05T21:28:24.309Z,95773.58
2018-12-05T21:30:55.173Z,95775.73
2018-12-05T21:33:27.832Z,95780.58
2018-12-05T21:35:59.587Z,95776.52
2018-12-05T21:38:30.766Z,95775.78
2018-12-05T21:41:02.415Z,95778.23
2018-12-05T21:43:34.772Z,95767.92
2018-12-05T21:46:06.170Z,95774.98
2018-12-05T21:48:37.412Z,95772.88
2018-12-05T21:51:08.779Z,95779.20
2018-12-05T21:53:40.693Z,95779.01
2018-12-05T21:56:11.300Z,95784.97
2018-12-05T21:58:42.093Z,95788.66
2018-12-05T22:01:13.294Z,95778.39
2018-12-05T22:03:44.990Z,95775.80
2018-12-05T22:06:16.687Z,95777.54
2018-12-05T22:08:47.312Z,95778.08
2018-12-05T22:11:18.014Z,95778.83
2018-12-05T22:13:49.672Z,95780.97
2018-12-05T22:16:20.211Z,95775.84
2018-12-05T22:18:50.657Z,95776.03
2018-12-05T22:21:21.081Z,95768.97
2018-12-05T22:23:55.358Z,95775.18
2018-12-05T22:26:26.355Z,95773.58
2018-12-05T22:28:57.158Z,95768.16
2018-12-05T22:31:27.902Z,95765.02
2018-12-05T22:33:59.049Z,95763.24
2018-12-05T22:36:30.146Z,95765.47
2018-12-05T22:39:01.200Z,95765.45
2018-12-05T22:41:31.931Z,95770.73
2018-12-05T22:44:05.908Z,95763.42
2018-12-05T22:46:36.308Z,95764.63
2018-12-05T22:49:07.053Z,95770.44
2018-12-05T22:51:37.435Z,95765.16
2018-12-05T22:54:08.610Z,95766.36
2018-12-05T22:56:39.218Z,95764.27
2018-12-05T22:59:09.766Z,95763.24
2018-12-05T23:01:40.289Z,95766.25
2018-12-05T23:04:11.302Z,95762.67
2018-12-05T23:06:42.749Z,95763.89
2018-12-05T23:09:13.245Z,95760.33
2018-12-05T23:11:43.692Z,95767.81
2018-12-05T23:14:15.268Z,95765.92
2018-12-05T23:16:45.916Z,95761.23
2018-12-05T23:19:15.609Z,95757.44
2018-12-05T23:21:46.374Z,95765.58
2018-12-05T23:24:18.024Z,95764.42
2018-12-05T23:26:48.810Z,95767.92
2018-12-05T23:29:19.193Z,95768.20
2018-12-05T23:31:49.812Z,95771.86
2018-12-05T23:34:20.580Z,95768.86
2018-12-05T23:36:50.956Z,95778.45
2018-12-05T23:39:21.482Z,95774.53
2018-12-05T23:41:51.368Z,95775.55
2018-12-05T23:44:22.086Z,95775.19
2018-12-05T23:46:52.267Z,95778.27
2018-12-05T23:49:22.864Z,95789.84
2018-12-05T23:51:53.292Z,95792.11
2018-12-05T23:54:24.758Z,95789.71
2018-12-05T23:56:55.456Z,95792.02
2018-12-05T23:59:25.883Z,95797.93
